Aidamar — ICSJ — position and weather

sailwx.info

Track history (hours):
 
Tides and Currents Weather Stations Pressure Air Temp Water Temp Dewpoint Dewpoint Depression Visibility Wind Speed Wind Dir Waves Ship Positions

Aidamar

Last reported at 2018-Jan-22 03:03 UTC. Time now 2018-Jan-23 10:18 UTC.
Position N 16°54' W 062°27'.

Length 253 m; draft 7.3 m.

Type: Passenger vessel. MMSI: 247312900.

Date/timePositionNaut miles runAvg speedWind from/ knotsBaromVisibWave heightAir tempDewpointWater temp
2018-Jan-22 03:03N 16°54' W 062°27'113.7
2018-Jan-22 03:00N 16°54' W 062°27'814.1
2018-Jan-22 02:28N 17°01' W 062°22'611.5
2018-Jan-22 01:56N 17°05' W 062°18'3 7.3
2018-Jan-22 01:30N 17°05' W 062°14'4 7.4
2018-Jan-22 00:59N 17°06' W 062°10'3 7.3
2018-Jan-22 00:30N 17°07' W 062°07'4 7.1
2018-Jan-22 00:00N 17°08' W 062°03'4 7.1
2018-Jan-21 23:30N 17°09' W 061°60'3 6.8
2018-Jan-21 23:00N 17°09' W 061°56'3 6.9
2018-Jan-21 22:30N 17°08' W 061°53'2 3.9
2018-Jan-21 22:00N 17°07' W 061°51'0 0.0
2018-Jan-21 21:29N 17°07' W 061°51'0 0.0
2018-Jan-21 20:59N 17°07' W 061°51'0 0.0
2018-Jan-21 20:26N 17°07' W 061°51'0 0.0
2018-Jan-21 19:59N 17°07' W 061°51'0 0.0
2018-Jan-21 19:29N 17°07' W 061°51'0 0.0
2018-Jan-21 18:59N 17°07' W 061°51'0 0.0
2018-Jan-21 18:26N 17°07' W 061°51'0 0.0
2018-Jan-21 17:59N 17°07' W 061°51'0 0.0
2018-Jan-21 17:29N 17°07' W 061°51'0 0.0
2018-Jan-21 16:59N 17°07' W 061°51'0 0.0
2018-Jan-21 16:29N 17°07' W 061°51'0 0.0
2018-Jan-21 15:59N 17°07' W 061°51'0 0.0
2018-Jan-21 15:29N 17°07' W 061°51'0 0.0
2018-Jan-21 14:59N 17°07' W 061°51'0 0.0
2018-Jan-21 14:29N 17°07' W 061°51'0 0.0
2018-Jan-21 13:53N 17°07' W 061°51'0 0.0
2018-Jan-21 13:29N 17°07' W 061°51'0 0.0
2018-Jan-21 12:59N 17°07' W 061°51'0 0.0
2018-Jan-21 12:29N 17°07' W 061°51'0 0.0
2018-Jan-21 11:59N 17°07' W 061°51'0 0.0
2018-Jan-21 11:30N 17°07' W 061°51'2 3.6
2018-Jan-21 11:00N 17°08' W 061°53'5 9.3
2018-Jan-21 10:31N 17°09' W 061°57'814.6
2018-Jan-21 09:56N 17°01' W 061°58'715.4
2018-Jan-21 09:30N 16°55' W 061°56'816.1
2018-Jan-21 09:01N 16°47' W 061°55'815.4
2018-Jan-21 08:30N 16°39' W 061°55'815.4
2018-Jan-21 08:00N 16°31' W 061°55'815.4
2018-Jan-21 07:30N 16°24' W 061°55'815.4
2018-Jan-21 07:00N 16°16' W 061°55'11015.0
2018-Jan-20 23:41N 14°35' W 061°09'414.3
2018-Jan-20 23:25N 14°36' W 061°06'2 0.2
2018-Jan-20 11:41N 14°35' W 061°07'314.1
2018-Jan-20 11:26N 14°36' W 061°11'12315.8
2018-Jan-20 03:42N 16°19' W 062°20'419.6
2018-Jan-20 03:29N 16°23' W 062°22'1019.2
2018-Jan-20 02:58N 16°31' W 062°27'919.0
2018-Jan-20 02:30N 16°39' W 062°32'39 3.7
2018-Jan-19 15:59N 17°16' W 062°44'916.9
2018-Jan-19 15:28N 17°19' W 062°52'918.8
2018-Jan-19 14:58N 17°26' W 062°60'1018.6
2018-Jan-19 14:26N 17°33' W 063°06'918.0
2018-Jan-19 13:57N 17°40' W 063°12'817.9
2018-Jan-19 13:30N 17°44' W 063°20'918.4
2018-Jan-19 13:00N 17°47' W 063°29'1118.5
2018-Jan-19 12:26N 17°50' W 063°39'  
2018-Jan-12 14:57N 09°22' W 079°53'0 0.0
2018-Jan-12 14:30N 09°22' W 079°53'0 0.0
2018-Jan-12 14:00N 09°22' W 079°53'1 2.4
2018-Jan-12 13:30N 09°23' W 079°54'611.6
2018-Jan-12 13:00N 09°28' W 079°53'814.1
2018-Jan-12 12:26N 09°36' W 079°51'613.9
2018-Jan-12 11:59N 09°42' W 079°50'813.9
2018-Jan-12 11:26N 09°47' W 079°44'  
Track history (hours):
 
Tides and Currents Weather Stations Pressure Air Temp Water Temp Dewpoint Dewpoint Depression Visibility Wind Speed Wind Dir Waves Ship Positions

Aidamar

Last reported at 2018-Jan-22 03:03 UTC. Time now 2018-Jan-23 10:18 UTC.
Position N 16°54' W 062°27'.

Length 253 m; draft 7.3 m.

Type: Passenger vessel. MMSI: 247312900.

Date/timePositionNaut miles runAvg speedWind from/ knotsBaromVisibWave heightAir tempDewpointWater temp
2018-Jan-22 03:03N 16°54' W 062°27'113.7
2018-Jan-22 03:00N 16°54' W 062°27'814.1
2018-Jan-22 02:28N 17°01' W 062°22'611.5
2018-Jan-22 01:56N 17°05' W 062°18'3 7.3
2018-Jan-22 01:30N 17°05' W 062°14'4 7.4
2018-Jan-22 00:59N 17°06' W 062°10'3 7.3
2018-Jan-22 00:30N 17°07' W 062°07'4 7.1
2018-Jan-22 00:00N 17°08' W 062°03'4 7.1
2018-Jan-21 23:30N 17°09' W 061°60'3 6.8
2018-Jan-21 23:00N 17°09' W 061°56'3 6.9
2018-Jan-21 22:30N 17°08' W 061°53'2 3.9
2018-Jan-21 22:00N 17°07' W 061°51'0 0.0
2018-Jan-21 21:29N 17°07' W 061°51'0 0.0
2018-Jan-21 20:59N 17°07' W 061°51'0 0.0
2018-Jan-21 20:26N 17°07' W 061°51'0 0.0
2018-Jan-21 19:59N 17°07' W 061°51'0 0.0
2018-Jan-21 19:29N 17°07' W 061°51'0 0.0
2018-Jan-21 18:59N 17°07' W 061°51'0 0.0
2018-Jan-21 18:26N 17°07' W 061°51'0 0.0
2018-Jan-21 17:59N 17°07' W 061°51'0 0.0
2018-Jan-21 17:29N 17°07' W 061°51'0 0.0
2018-Jan-21 16:59N 17°07' W 061°51'0 0.0
2018-Jan-21 16:29N 17°07' W 061°51'0 0.0
2018-Jan-21 15:59N 17°07' W 061°51'0 0.0
2018-Jan-21 15:29N 17°07' W 061°51'0 0.0
2018-Jan-21 14:59N 17°07' W 061°51'0 0.0
2018-Jan-21 14:29N 17°07' W 061°51'0 0.0
2018-Jan-21 13:53N 17°07' W 061°51'0 0.0
2018-Jan-21 13:29N 17°07' W 061°51'0 0.0
2018-Jan-21 12:59N 17°07' W 061°51'0 0.0
2018-Jan-21 12:29N 17°07' W 061°51'0 0.0
2018-Jan-21 11:59N 17°07' W 061°51'0 0.0
2018-Jan-21 11:30N 17°07' W 061°51'2 3.6
2018-Jan-21 11:00N 17°08' W 061°53'5 9.3
2018-Jan-21 10:31N 17°09' W 061°57'814.6
2018-Jan-21 09:56N 17°01' W 061°58'715.4
2018-Jan-21 09:30N 16°55' W 061°56'816.1
2018-Jan-21 09:01N 16°47' W 061°55'815.4
2018-Jan-21 08:30N 16°39' W 061°55'815.4
2018-Jan-21 08:00N 16°31' W 061°55'815.4
2018-Jan-21 07:30N 16°24' W 061°55'815.4
2018-Jan-21 07:00N 16°16' W 061°55'11015.0
2018-Jan-20 23:41N 14°35' W 061°09'414.3
2018-Jan-20 23:25N 14°36' W 061°06'2 0.2
2018-Jan-20 11:41N 14°35' W 061°07'314.1
2018-Jan-20 11:26N 14°36' W 061°11'12315.8
2018-Jan-20 03:42N 16°19' W 062°20'419.6
2018-Jan-20 03:29N 16°23' W 062°22'1019.2
2018-Jan-20 02:58N 16°31' W 062°27'919.0
2018-Jan-20 02:30N 16°39' W 062°32'39 3.7
2018-Jan-19 15:59N 17°16' W 062°44'916.9
2018-Jan-19 15:28N 17°19' W 062°52'918.8
2018-Jan-19 14:58N 17°26' W 062°60'1018.6
2018-Jan-19 14:26N 17°33' W 063°06'918.0
2018-Jan-19 13:57N 17°40' W 063°12'817.9
2018-Jan-19 13:30N 17°44' W 063°20'918.4
2018-Jan-19 13:00N 17°47' W 063°29'1118.5
2018-Jan-19 12:26N 17°50' W 063°39'  
2018-Jan-12 14:57N 09°22' W 079°53'0 0.0
2018-Jan-12 14:30N 09°22' W 079°53'0 0.0
2018-Jan-12 14:00N 09°22' W 079°53'1 2.4
2018-Jan-12 13:30N 09°23' W 079°54'611.6
2018-Jan-12 13:00N 09°28' W 079°53'814.1
2018-Jan-12 12:26N 09°36' W 079°51'613.9
2018-Jan-12 11:59N 09°42' W 079°50'813.9
2018-Jan-12 11:26N 09°47' W 079°44'  

Dump ship's entire track history